Terminal Aerodrome Forecast
Issued by NWS Portland, OR

Home | Current Version | Previous Version | Text Only | Print | Product List | Glossary On
Versions: 1 2 3 4 5 6 7 8 9 10 11 12 13 14 15 16 17 18 19 20 21
000
FTUS46 KPQR 282328
TAFAST
TAF
KAST 282328Z 2900/2924 33010KT P6SM SKC
     FM291200 VRB04KT 1SM BR BKN002
     FM291500 32005KT P6SM SCT002
     FM291830 34007KT P6SM SKC=

USA.gov is the U.S. government's official web portal to all federal, state and local government web resources and services.